createdAt,value
2019-03-21T00:00:52.258Z,8.18
2019-03-21T00:01:52.262Z,8.28
2019-03-21T00:02:52.278Z,8.33
2019-03-21T00:03:52.288Z,8.16
2019-03-21T00:04:52.302Z,8.28
2019-03-21T00:05:52.319Z,8.27
2019-03-21T00:06:52.329Z,8.18
2019-03-21T00:07:52.344Z,8.26
2019-03-21T00:08:52.353Z,8.34
2019-03-21T00:09:52.362Z,8.24
2019-03-21T00:10:52.372Z,8.36
2019-03-21T00:11:52.386Z,8.30
2019-03-21T00:12:52.399Z,8.30
2019-03-21T00:13:52.407Z,8.38
2019-03-21T00:14:52.484Z,8.33
2019-03-21T00:15:52.434Z,8.24
2019-03-21T00:16:52.449Z,8.26
2019-03-21T00:17:52.462Z,8.16
2019-03-21T00:18:52.469Z,8.13
2019-03-21T00:19:52.485Z,8.19
2019-03-21T00:20:52.492Z,8.18
2019-03-21T00:21:52.525Z,8.26
2019-03-21T00:22:52.522Z,8.18
2019-03-21T00:23:52.527Z,8.18
2019-03-21T00:24:52.547Z,8.09
2019-03-21T00:25:52.560Z,8.12
2019-03-21T00:26:52.578Z,8.10
2019-03-21T00:27:52.577Z,8.03
2019-03-21T00:28:52.591Z,8.05
2019-03-21T00:29:52.614Z,8.03
2019-03-21T00:30:52.622Z,8.00
2019-03-21T00:31:52.632Z,8.06
2019-03-21T00:32:52.647Z,8.10
2019-03-21T00:33:52.645Z,8.00
2019-03-21T00:34:52.663Z,8.05
2019-03-21T00:35:52.663Z,8.01
2019-03-21T00:36:52.705Z,8.03
2019-03-21T00:37:52.723Z,8.01
2019-03-21T00:38:52.713Z,8.05
2019-03-21T00:39:52.851Z,8.06
2019-03-21T00:40:52.739Z,8.06
2019-03-21T00:41:52.757Z,8.15
2019-03-21T00:42:52.765Z,8.09
2019-03-21T00:43:52.773Z,8.12
2019-03-21T00:44:52.785Z,8.06
2019-03-21T00:45:52.812Z,8.15
2019-03-21T00:46:52.813Z,8.03
2019-03-21T00:47:52.832Z,8.09
2019-03-21T00:48:52.840Z,8.03
2019-03-21T00:49:52.844Z,8.01
2019-03-21T00:50:52.852Z,7.85
2019-03-21T00:51:52.866Z,7.75
2019-03-21T00:52:52.890Z,7.82
2019-03-21T00:53:52.908Z,7.75
2019-03-21T00:54:52.916Z,7.82
2019-03-21T00:55:52.930Z,7.82
2019-03-21T00:56:52.930Z,7.88
2019-03-21T00:57:52.941Z,7.80
2019-03-21T00:58:52.958Z,7.80
2019-03-21T00:59:52.964Z,7.80
2019-03-21T01:00:52.980Z,7.80
2019-03-21T01:01:52.992Z,7.82
2019-03-21T01:02:53.006Z,7.77
2019-03-21T01:03:53.020Z,7.77
2019-03-21T01:04:53.028Z,7.80
2019-03-21T01:05:53.042Z,7.82
2019-03-21T01:06:53.054Z,7.79
2019-03-21T01:07:53.069Z,7.82
2019-03-21T01:08:53.091Z,7.76
2019-03-21T01:09:53.085Z,7.82
2019-03-21T01:10:53.108Z,7.76
2019-03-21T01:11:53.116Z,7.80
2019-03-21T01:12:53.124Z,7.75
2019-03-21T01:13:53.133Z,7.69
2019-03-21T01:14:53.144Z,7.72
2019-03-21T01:15:53.160Z,7.73
2019-03-21T01:16:53.172Z,7.76
2019-03-21T01:17:53.182Z,7.70
2019-03-21T01:18:53.188Z,7.67
2019-03-21T01:19:53.204Z,7.72
2019-03-21T01:20:53.370Z,7.66
2019-03-21T01:21:53.228Z,7.51
2019-03-21T01:22:53.408Z,7.53
2019-03-21T01:23:53.259Z,7.50
2019-03-21T01:24:53.272Z,7.47
2019-03-21T01:25:53.278Z,7.43
2019-03-21T01:26:53.290Z,7.36
2019-03-21T01:27:53.305Z,7.33
2019-03-21T01:28:53.324Z,7.29
2019-03-21T01:29:53.332Z,7.32
2019-03-21T01:30:53.337Z,7.21
2019-03-21T01:31:54.613Z,7.25
2019-03-21T01:32:53.366Z,7.18
2019-03-21T01:33:53.369Z,7.21
2019-03-21T01:34:53.390Z,7.18
2019-03-21T01:35:53.400Z,7.21
2019-03-21T01:36:53.408Z,7.21
2019-03-21T01:37:53.418Z,7.23
2019-03-21T01:38:53.434Z,7.18
2019-03-21T01:39:53.444Z,7.25
2019-03-21T01:40:53.456Z,7.21
2019-03-21T01:41:53.462Z,7.20
2019-03-21T01:42:53.486Z,7.18
2019-03-21T01:43:53.484Z,7.20
2019-03-21T01:44:53.490Z,7.33
2019-03-21T01:45:53.530Z,7.31
2019-03-21T01:46:53.524Z,7.24
2019-03-21T01:47:53.532Z,7.35
2019-03-21T01:48:53.545Z,7.39
2019-03-21T01:49:53.556Z,7.47
2019-03-21T01:50:53.577Z,7.39
2019-03-21T01:51:53.585Z,7.38
2019-03-21T01:52:53.591Z,7.43
2019-03-21T01:53:53.605Z,7.35
2019-03-21T01:54:53.614Z,7.23
2019-03-21T01:55:53.623Z,7.11
2019-03-21T01:56:53.637Z,7.18
2019-03-21T01:57:53.651Z,7.23
2019-03-21T01:58:53.665Z,7.17
2019-03-21T01:59:53.677Z,7.15
2019-03-21T02:00:53.684Z,7.18
2019-03-21T02:01:53.695Z,7.23
2019-03-21T02:02:53.709Z,7.18
2019-03-21T02:03:53.721Z,7.31
2019-03-21T02:04:53.731Z,7.23
2019-03-21T02:05:53.753Z,7.29
2019-03-21T02:06:53.763Z,7.25
2019-03-21T02:07:53.763Z,7.31
2019-03-21T02:08:53.789Z,7.20
2019-03-21T02:09:53.793Z,7.24
2019-03-21T02:10:53.804Z,7.23
2019-03-21T02:11:53.809Z,7.20
2019-03-21T02:12:53.821Z,7.18
2019-03-21T02:13:53.837Z,7.23
2019-03-21T02:14:53.859Z,7.10
2019-03-21T02:15:53.859Z,7.06
2019-03-21T02:16:53.872Z,7.05
2019-03-21T02:17:53.881Z,6.95
2019-03-21T02:18:53.897Z,6.92
2019-03-21T02:19:53.907Z,7.05
2019-03-21T02:20:53.917Z,7.00
2019-03-21T02:21:53.929Z,7.05
2019-03-21T02:22:53.941Z,6.96
2019-03-21T02:23:53.949Z,6.93
2019-03-21T02:24:53.969Z,7.00
2019-03-21T02:25:53.974Z,6.92
2019-03-21T02:26:53.991Z,6.96
2019-03-21T02:27:53.995Z,7.03
2019-03-21T02:28:54.005Z,7.03
2019-03-21T02:29:54.023Z,7.11
2019-03-21T02:30:54.046Z,7.06
2019-03-21T02:31:54.044Z,7.05
2019-03-21T02:32:54.060Z,6.89
2019-03-21T02:33:54.069Z,6.97
2019-03-21T02:34:54.086Z,6.96
2019-03-21T02:35:54.145Z,6.93
2019-03-21T02:36:54.107Z,6.96
2019-03-21T02:37:54.119Z,6.87
2019-03-21T02:38:54.126Z,6.85
2019-03-21T02:39:59.902Z,6.79
2019-03-21T02:40:54.160Z,6.81
2019-03-21T02:41:54.167Z,6.75
2019-03-21T02:42:54.170Z,6.75
2019-03-21T02:43:54.183Z,6.64
2019-03-21T02:45:07.651Z,6.63
2019-03-21T02:45:54.205Z,6.64
2019-03-21T02:46:54.219Z,6.63
2019-03-21T02:47:54.232Z,6.64
2019-03-21T02:48:54.243Z,6.64
2019-03-21T02:49:54.248Z,6.63
2019-03-21T02:50:54.269Z,6.64
2019-03-21T02:51:54.286Z,6.69
2019-03-21T02:52:54.323Z,6.70
2019-03-21T02:53:54.294Z,6.63
2019-03-21T02:54:54.317Z,6.69
2019-03-21T02:55:54.318Z,6.72
2019-03-21T02:56:54.330Z,6.74
2019-03-21T02:57:54.341Z,6.72
2019-03-21T02:58:54.361Z,6.88
2019-03-21T02:59:54.354Z,6.81
2019-03-21T03:00:54.380Z,6.81
2019-03-21T03:01:54.390Z,6.89
2019-03-21T03:02:54.402Z,6.85
2019-03-21T03:03:54.442Z,6.87
2019-03-21T03:04:54.433Z,6.82
2019-03-21T03:05:54.429Z,6.82
2019-03-21T03:06:54.445Z,6.88
2019-03-21T03:07:54.452Z,6.93
2019-03-21T03:08:54.463Z,6.85
2019-03-21T03:09:54.477Z,6.82
2019-03-21T03:10:54.491Z,6.81
2019-03-21T03:11:54.515Z,6.82
2019-03-21T03:12:54.518Z,6.81
2019-03-21T03:13:54.533Z,6.74
2019-03-21T03:14:54.557Z,6.75
2019-03-21T03:15:54.615Z,6.75
2019-03-21T03:16:54.554Z,6.72
2019-03-21T03:17:54.575Z,6.77
2019-03-21T03:18:54.589Z,6.67
2019-03-21T03:19:54.592Z,6.74
2019-03-21T03:20:54.607Z,6.72
2019-03-21T03:21:54.629Z,6.70
2019-03-21T03:22:54.642Z,6.72
2019-03-21T03:23:54.638Z,6.72
2019-03-21T03:24:54.653Z,6.72
2019-03-21T03:25:54.647Z,6.79
2019-03-21T03:26:54.668Z,6.64
2019-03-21T03:27:54.675Z,6.64
2019-03-21T03:28:54.688Z,6.64
2019-03-21T03:29:54.704Z,6.69
2019-03-21T03:30:54.715Z,6.67
2019-03-21T03:31:54.719Z,6.67
2019-03-21T03:32:54.733Z,6.64
2019-03-21T03:33:54.733Z,6.51
2019-03-21T03:34:54.754Z,6.67
2019-03-21T03:35:54.830Z,6.57
2019-03-21T03:36:54.792Z,6.62
2019-03-21T03:37:54.791Z,6.63
2019-03-21T03:38:54.801Z,6.59
2019-03-21T03:39:54.916Z,6.66
2019-03-21T03:40:54.821Z,6.69
2019-03-21T03:41:54.833Z,6.62
2019-03-21T03:42:54.848Z,6.67
2019-03-21T03:43:54.969Z,6.63
2019-03-21T03:44:54.865Z,6.63
2019-03-21T03:45:54.892Z,6.67
2019-03-21T03:46:54.887Z,6.67
2019-03-21T03:47:54.900Z,6.67
2019-03-21T03:48:54.913Z,6.63
2019-03-21T03:49:54.947Z,6.56
2019-03-21T03:50:54.942Z,6.56
2019-03-21T03:51:54.954Z,6.60
2019-03-21T03:52:54.960Z,6.57
2019-03-21T03:53:54.969Z,6.56
2019-03-21T03:54:54.988Z,6.56
2019-03-21T03:55:54.993Z,6.56
2019-03-21T03:56:55.000Z,6.54
2019-03-21T03:57:55.020Z,6.57
2019-03-21T03:58:55.025Z,6.56
2019-03-21T03:59:55.033Z,6.60
2019-03-21T04:00:55.048Z,6.52
2019-03-21T04:01:55.053Z,6.56
2019-03-21T04:02:55.064Z,6.57
2019-03-21T04:03:55.080Z,6.52
2019-03-21T04:04:55.085Z,6.54
2019-03-21T04:05:55.101Z,6.49
2019-03-21T04:06:55.113Z,6.46
2019-03-21T04:07:55.127Z,6.52
2019-03-21T04:08:55.133Z,6.54
2019-03-21T04:09:55.160Z,6.54
2019-03-21T04:10:55.148Z,6.59
2019-03-21T04:11:55.165Z,6.60
2019-03-21T04:12:55.180Z,6.54
2019-03-21T04:13:55.192Z,6.57
2019-03-21T04:14:55.202Z,6.62
2019-03-21T04:15:55.218Z,6.60
2019-03-21T04:16:55.228Z,6.62
2019-03-21T04:17:55.233Z,6.57
2019-03-21T04:18:55.246Z,6.59
2019-03-21T04:19:55.252Z,6.59
2019-03-21T04:20:55.272Z,6.63
2019-03-21T04:21:55.315Z,6.72
2019-03-21T04:22:55.289Z,6.69
2019-03-21T04:23:55.312Z,6.60
2019-03-21T04:24:55.316Z,6.60
2019-03-21T04:25:55.348Z,6.57
2019-03-21T04:26:55.335Z,6.57
2019-03-21T04:27:55.346Z,6.48
2019-03-21T04:28:55.367Z,6.54
2019-03-21T04:29:55.370Z,6.49
2019-03-21T04:30:55.379Z,6.41
2019-03-21T04:31:55.401Z,6.38
2019-03-21T04:32:55.408Z,6.33
2019-03-21T04:33:55.410Z,6.45
2019-03-21T04:34:55.464Z,6.41
2019-03-21T04:35:55.439Z,6.35
2019-03-21T04:36:55.450Z,6.39
2019-03-21T04:37:55.455Z,6.42
2019-03-21T04:38:55.473Z,6.35
2019-03-21T04:39:55.484Z,6.36
2019-03-21T04:40:55.489Z,6.39
2019-03-21T04:41:55.497Z,6.39
2019-03-21T04:42:55.518Z,6.36
2019-03-21T04:43:55.522Z,6.35
2019-03-21T04:44:55.531Z,6.28
2019-03-21T04:46:03.277Z,6.31
2019-03-21T04:46:55.554Z,6.30
2019-03-21T04:47:55.569Z,6.20
2019-03-21T04:48:55.570Z,6.24
2019-03-21T04:49:55.582Z,6.31
2019-03-21T04:50:55.598Z,6.30
2019-03-21T04:51:55.612Z,6.28
2019-03-21T04:52:55.614Z,6.31
2019-03-21T04:53:55.641Z,6.33
2019-03-21T04:54:55.639Z,6.39
2019-03-21T04:55:55.659Z,6.39
2019-03-21T04:56:55.664Z,6.41
2019-03-21T04:57:55.674Z,6.33
2019-03-21T04:58:55.686Z,6.33
2019-03-21T04:59:55.700Z,6.30
2019-03-21T05:00:55.715Z,6.33
2019-03-21T05:01:55.723Z,6.42
2019-03-21T05:02:55.731Z,6.36
2019-03-21T05:03:55.732Z,6.36
2019-03-21T05:04:55.753Z,6.30
2019-03-21T05:05:55.765Z,6.30
2019-03-21T05:06:55.772Z,6.30
2019-03-21T05:07:55.781Z,6.31
2019-03-21T05:08:55.794Z,6.26
2019-03-21T05:09:55.807Z,6.26
2019-03-21T05:10:55.813Z,6.28
2019-03-21T05:11:55.828Z,6.28
2019-03-21T05:12:55.837Z,6.26
2019-03-21T05:13:55.858Z,6.36
2019-03-21T05:14:55.862Z,6.26
2019-03-21T05:15:55.876Z,6.28
2019-03-21T05:16:55.878Z,6.30
2019-03-21T05:17:55.898Z,6.19
2019-03-21T05:18:55.902Z,6.22
2019-03-21T05:19:55.910Z,6.24
2019-03-21T05:20:55.927Z,6.27
2019-03-21T05:21:55.934Z,6.20
2019-03-21T05:22:55.950Z,6.17
2019-03-21T05:23:55.954Z,6.09
2019-03-21T05:24:55.963Z,6.20
2019-03-21T05:25:55.975Z,6.09
2019-03-21T05:26:55.989Z,6.05
2019-03-21T05:27:55.999Z,5.98
2019-03-21T05:28:56.015Z,5.97
2019-03-21T05:29:56.021Z,5.99
2019-03-21T05:30:56.043Z,6.05
2019-03-21T05:31:56.041Z,5.99
2019-03-21T05:32:56.051Z,5.99
2019-03-21T05:33:56.058Z,5.90
2019-03-21T05:34:56.074Z,5.91
2019-03-21T05:35:56.082Z,5.91
2019-03-21T05:36:56.107Z,5.86
2019-03-21T05:37:56.125Z,5.83
2019-03-21T05:38:56.107Z,5.79
2019-03-21T05:39:56.127Z,5.59
2019-03-21T05:40:56.152Z,5.61
2019-03-21T05:41:56.147Z,5.66
2019-03-21T05:42:56.159Z,5.71
2019-03-21T05:43:56.170Z,5.79
2019-03-21T05:44:56.179Z,5.89
2019-03-21T05:45:56.191Z,5.83
2019-03-21T05:46:56.215Z,5.90
2019-03-21T05:47:56.219Z,5.91
2019-03-21T05:48:56.249Z,5.84
2019-03-21T05:49:56.231Z,5.99
2019-03-21T05:50:56.240Z,5.82
2019-03-21T05:51:56.249Z,5.89
2019-03-21T05:52:56.271Z,5.76
2019-03-21T05:53:56.295Z,5.82
2019-03-21T05:54:56.283Z,5.69
2019-03-21T05:55:56.299Z,5.65
2019-03-21T05:56:56.311Z,5.72
2019-03-21T05:57:56.318Z,5.61
2019-03-21T05:58:56.327Z,5.82
2019-03-21T05:59:56.339Z,5.89
2019-03-21T06:00:56.353Z,5.86
2019-03-21T06:01:56.357Z,5.93
2019-03-21T06:02:56.375Z,5.93
2019-03-21T06:03:56.373Z,6.05
2019-03-21T06:04:56.391Z,5.99
2019-03-21T06:05:56.403Z,5.98
2019-03-21T06:06:56.412Z,6.09
2019-03-21T06:07:56.426Z,6.07
2019-03-21T06:08:56.433Z,6.07
2019-03-21T06:09:56.447Z,6.12
2019-03-21T06:10:56.469Z,6.14
2019-03-21T06:11:56.469Z,6.09
2019-03-21T06:12:56.479Z,6.01
2019-03-21T06:13:56.483Z,5.99
2019-03-21T06:14:56.499Z,5.98
2019-03-21T06:15:56.502Z,5.98
2019-03-21T06:16:56.515Z,6.01
2019-03-21T06:17:56.519Z,6.02
2019-03-21T06:18:56.537Z,6.08
2019-03-21T06:19:56.543Z,6.09
2019-03-21T06:20:56.561Z,6.11
2019-03-21T06:21:56.567Z,6.14
2019-03-21T06:22:56.577Z,6.09
2019-03-21T06:23:56.589Z,6.19
2019-03-21T06:24:56.604Z,6.16
2019-03-21T06:25:56.614Z,6.11
2019-03-21T06:26:56.622Z,6.14
2019-03-21T06:27:56.634Z,6.27
2019-03-21T06:28:56.630Z,6.14
2019-03-21T06:29:56.696Z,6.28
2019-03-21T06:30:56.663Z,6.26
2019-03-21T06:31:56.676Z,6.24
2019-03-21T06:32:56.697Z,6.27
2019-03-21T06:33:56.701Z,6.35
2019-03-21T06:34:56.706Z,6.42
2019-03-21T06:35:56.717Z,6.52
2019-03-21T06:36:56.726Z,6.57
2019-03-21T06:37:56.746Z,6.45
2019-03-21T06:38:56.758Z,6.54
2019-03-21T06:39:56.768Z,6.52
2019-03-21T06:40:56.767Z,6.51
2019-03-21T06:41:56.786Z,6.60
2019-03-21T06:42:56.798Z,6.52
2019-03-21T06:43:56.789Z,6.63
2019-03-21T06:44:56.814Z,6.64
2019-03-21T06:45:56.848Z,6.67
2019-03-21T06:46:56.834Z,6.79
2019-03-21T06:47:56.957Z,6.69
2019-03-21T06:48:56.861Z,6.75
2019-03-21T06:49:56.877Z,6.64
2019-03-21T06:50:56.884Z,6.64
2019-03-21T06:51:56.897Z,6.63
2019-03-21T06:52:56.902Z,6.63
2019-03-21T06:53:57.012Z,6.63
2019-03-21T06:54:56.937Z,6.67
2019-03-21T06:55:56.934Z,6.51
2019-03-21T06:56:56.948Z,6.63
2019-03-21T06:57:56.978Z,6.59
2019-03-21T06:58:56.991Z,6.51
2019-03-21T06:59:56.998Z,6.62
2019-03-21T07:00:56.991Z,6.63
2019-03-21T07:01:57.011Z,6.87
2019-03-21T07:02:57.011Z,6.89
2019-03-21T07:04:06.581Z,6.96
2019-03-21T07:04:57.032Z,7.03
2019-03-21T07:05:57.040Z,7.17
2019-03-21T07:07:07.684Z,7.23
2019-03-21T07:07:57.068Z,7.33
2019-03-21T07:08:57.082Z,7.36
2019-03-21T07:09:57.092Z,7.40
2019-03-21T07:10:58.408Z,7.48
2019-03-21T07:11:57.111Z,7.45
2019-03-21T07:12:57.131Z,7.50
2019-03-21T07:13:57.142Z,7.38
2019-03-21T07:14:57.148Z,7.33
2019-03-21T07:15:57.157Z,7.42
2019-03-21T07:17:00.698Z,7.42
2019-03-21T07:17:57.187Z,7.43
2019-03-21T07:18:57.199Z,7.54
2019-03-21T07:19:57.202Z,7.54
2019-03-21T07:20:57.223Z,7.69
2019-03-21T07:21:57.232Z,7.69
2019-03-21T07:22:57.238Z,7.60
2019-03-21T07:23:57.252Z,7.67
2019-03-21T07:24:57.262Z,7.53
2019-03-21T07:25:57.279Z,7.61
2019-03-21T07:26:57.290Z,7.50
2019-03-21T07:27:57.313Z,7.51
2019-03-21T07:28:57.312Z,7.61
2019-03-21T07:29:57.322Z,7.66
2019-03-21T07:30:57.825Z,7.69
2019-03-21T07:31:57.353Z,7.66
2019-03-21T07:32:57.387Z,7.75
2019-03-21T07:33:57.370Z,7.69
2019-03-21T07:34:57.389Z,7.63
2019-03-21T07:35:57.443Z,7.50
2019-03-21T07:36:57.407Z,7.60
2019-03-21T07:37:57.414Z,7.67
2019-03-21T07:38:57.536Z,7.76
2019-03-21T07:39:57.436Z,7.70
2019-03-21T07:40:57.448Z,7.67
2019-03-21T07:41:57.463Z,7.69
2019-03-21T07:42:57.480Z,7.80
2019-03-21T07:43:57.479Z,7.85
2019-03-21T07:44:57.503Z,7.85
2019-03-21T07:45:57.508Z,7.77
2019-03-21T07:46:57.523Z,7.90
2019-03-21T07:47:57.538Z,8.10
2019-03-21T07:48:57.542Z,8.00
2019-03-21T07:49:57.557Z,8.05
2019-03-21T07:50:57.566Z,7.93
2019-03-21T07:51:57.580Z,7.90
2019-03-21T07:52:57.593Z,7.90
2019-03-21T07:53:57.642Z,8.00
2019-03-21T07:54:57.610Z,8.01
2019-03-21T07:55:57.617Z,8.12
2019-03-21T07:56:57.635Z,8.06
2019-03-21T07:57:59.467Z,8.13
2019-03-21T07:58:57.985Z,8.23
2019-03-21T07:59:57.696Z,8.28
2019-03-21T08:00:57.683Z,8.42
2019-03-21T08:01:57.700Z,8.31
2019-03-21T08:02:57.711Z,8.36
2019-03-21T08:03:57.719Z,8.41
2019-03-21T08:04:57.726Z,8.49
2019-03-21T08:05:57.740Z,8.55
2019-03-21T08:06:57.777Z,8.71
2019-03-21T08:07:57.767Z,8.71
2019-03-21T08:08:57.777Z,8.74
2019-03-21T08:09:57.787Z,8.81
2019-03-21T08:10:57.799Z,8.79
2019-03-21T08:11:57.812Z,8.82
2019-03-21T08:12:57.829Z,8.81
2019-03-21T08:13:57.835Z,8.85
2019-03-21T08:14:57.868Z,8.88
2019-03-21T08:15:57.864Z,8.92
2019-03-21T08:16:57.873Z,8.92
2019-03-21T08:17:57.889Z,9.03
2019-03-21T08:18:57.897Z,9.11
2019-03-21T08:19:57.903Z,9.47
2019-03-21T08:21:00.064Z,9.68
2019-03-21T08:21:57.931Z,9.89
2019-03-21T08:22:57.945Z,10.01
2019-03-21T08:23:57.965Z,9.97
2019-03-21T08:24:57.973Z,9.72
2019-03-21T08:25:57.980Z,9.74
2019-03-21T08:26:57.996Z,9.69
2019-03-21T08:27:58.008Z,9.72
2019-03-21T08:28:58.018Z,9.64
2019-03-21T08:29:58.030Z,9.79
2019-03-21T08:30:58.044Z,9.87
2019-03-21T08:31:58.058Z,9.98
2019-03-21T08:32:58.072Z,10.17
2019-03-21T08:33:58.083Z,10.31
2019-03-21T08:34:58.107Z,10.42
2019-03-21T08:35:58.109Z,10.57
2019-03-21T08:36:58.126Z,10.69
2019-03-21T08:37:58.139Z,10.69
2019-03-21T08:38:58.148Z,10.68
2019-03-21T08:39:58.156Z,10.64
2019-03-21T08:40:58.172Z,10.81
2019-03-21T08:41:58.188Z,10.92
2019-03-21T08:42:58.198Z,10.92
2019-03-21T08:43:58.212Z,10.86
2019-03-21T08:44:58.230Z,10.92
2019-03-21T08:45:58.240Z,11.05
2019-03-21T08:46:58.253Z,11.11
2019-03-21T08:47:58.267Z,11.32
2019-03-21T08:48:58.286Z,11.33
2019-03-21T08:49:58.294Z,11.35
2019-03-21T08:51:07.636Z,11.43
2019-03-21T08:51:58.316Z,11.40
2019-03-21T08:52:58.336Z,11.47
2019-03-21T08:53:58.347Z,11.48
2019-03-21T08:54:58.363Z,11.52
2019-03-21T08:55:58.372Z,11.52
2019-03-21T08:56:58.393Z,11.45
2019-03-21T08:57:58.408Z,11.66
2019-03-21T08:58:58.416Z,11.62
2019-03-21T08:59:58.468Z,11.55
2019-03-21T09:00:58.444Z,11.54
2019-03-21T09:01:58.463Z,11.47
2019-03-21T09:02:58.473Z,11.55
2019-03-21T09:03:58.488Z,11.29
2019-03-21T09:04:59.753Z,11.25
2019-03-21T09:05:58.514Z,11.26
2019-03-21T09:06:58.540Z,11.29
2019-03-21T09:07:58.540Z,11.14
2019-03-21T09:08:58.557Z,11.11
2019-03-21T09:09:58.571Z,11.08
2019-03-21T09:10:58.587Z,11.05
2019-03-21T09:11:58.607Z,11.11
2019-03-21T09:12:58.616Z,11.10
2019-03-21T09:13:58.628Z,11.15
2019-03-21T09:14:58.640Z,11.25
2019-03-21T09:15:58.650Z,11.51
2019-03-21T09:16:58.668Z,11.78
2019-03-21T09:17:58.675Z,11.80
2019-03-21T09:18:58.700Z,11.88
2019-03-21T09:19:58.717Z,11.95
2019-03-21T09:20:58.730Z,12.13
2019-03-21T09:21:58.740Z,12.13
2019-03-21T09:22:58.755Z,12.32
2019-03-21T09:23:58.770Z,12.32
2019-03-21T09:24:58.778Z,12.45
2019-03-21T09:25:58.796Z,12.47
2019-03-21T09:26:58.817Z,12.49
2019-03-21T09:28:02.981Z,12.45
2019-03-21T09:28:58.848Z,12.25
2019-03-21T09:29:58.852Z,12.22
2019-03-21T09:30:58.871Z,12.12
2019-03-21T09:31:58.878Z,12.04
2019-03-21T09:32:58.898Z,12.04
2019-03-21T09:33:58.922Z,12.09
2019-03-21T09:34:58.933Z,12.31
2019-03-21T09:35:59.058Z,12.54
2019-03-21T09:36:58.954Z,12.58
2019-03-21T09:37:59.040Z,12.49
2019-03-21T09:38:58.982Z,12.42
2019-03-21T09:39:59.008Z,12.60
2019-03-21T09:40:59.010Z,12.60
2019-03-21T09:41:59.032Z,12.68
2019-03-21T09:42:59.051Z,12.95
2019-03-21T09:43:59.064Z,13.08
2019-03-21T09:44:59.074Z,13.05
2019-03-21T09:45:59.088Z,12.90
2019-03-21T09:46:59.102Z,12.87
2019-03-21T09:47:59.110Z,12.90
2019-03-21T09:48:59.124Z,13.01
2019-03-21T09:49:59.472Z,13.08
2019-03-21T09:50:59.160Z,13.05
2019-03-21T09:51:59.170Z,13.11
2019-03-21T09:52:59.229Z,13.28
2019-03-21T09:54:09.280Z,13.42
2019-03-21T09:54:59.221Z,13.68
2019-03-21T09:56:01.168Z,13.72
2019-03-21T09:56:59.244Z,13.67
2019-03-21T09:57:59.260Z,13.65
2019-03-21T09:58:59.280Z,13.68
2019-03-21T09:59:59.288Z,13.67
2019-03-21T10:00:59.308Z,13.67
2019-03-21T10:01:59.324Z,13.78
2019-03-21T10:02:59.336Z,13.86
2019-03-21T10:03:59.352Z,13.85
2019-03-21T10:04:59.364Z,14.03
2019-03-21T10:05:59.392Z,14.17
2019-03-21T10:06:59.398Z,14.40
2019-03-21T10:07:59.748Z,14.65
2019-03-21T10:08:59.513Z,14.94
2019-03-21T10:09:59.456Z,15.21
2019-03-21T10:10:59.585Z,15.49
2019-03-21T10:11:59.494Z,15.59
2019-03-21T10:12:59.518Z,15.90
2019-03-21T10:13:59.524Z,16.28
2019-03-21T10:14:59.584Z,16.84
2019-03-21T10:15:59.568Z,17.15
2019-03-21T10:16:59.584Z,17.54
2019-03-21T10:17:59.605Z,17.94
2019-03-21T10:18:59.620Z,17.89
2019-03-21T10:19:59.647Z,17.92
2019-03-21T10:20:59.666Z,17.63
2019-03-21T10:21:59.684Z,17.36
2019-03-21T10:22:59.701Z,17.42
2019-03-21T10:23:59.731Z,16.99
2019-03-21T10:24:59.753Z,16.83
2019-03-21T10:25:59.762Z,16.89
2019-03-21T10:26:59.781Z,16.46
2019-03-21T10:27:59.808Z,16.28
2019-03-21T10:28:59.870Z,16.26
2019-03-21T10:29:59.851Z,16.24
2019-03-21T10:30:59.872Z,16.24
2019-03-21T10:31:59.888Z,16.53
2019-03-21T10:32:59.911Z,16.69
2019-03-21T10:33:59.980Z,17.01
2019-03-21T10:34:59.955Z,16.91
2019-03-21T10:35:59.971Z,16.94
2019-03-21T10:36:59.991Z,17.19
2019-03-21T10:38:00.019Z,17.24
2019-03-21T10:39:00.041Z,17.12
2019-03-21T10:40:00.060Z,17.20
2019-03-21T10:41:00.080Z,17.14
2019-03-21T10:42:00.104Z,17.11
2019-03-21T10:43:00.121Z,17.34
2019-03-21T10:44:00.144Z,17.70
2019-03-21T10:45:00.355Z,17.80
2019-03-21T10:46:00.204Z,18.13
2019-03-21T10:47:00.209Z,18.50
2019-03-21T10:48:00.229Z,18.29
2019-03-21T10:49:00.253Z,17.82
2019-03-21T10:50:00.436Z,17.65
2019-03-21T10:51:00.291Z,17.71
2019-03-21T10:52:00.315Z,17.71
2019-03-21T10:53:00.340Z,17.54
2019-03-21T10:54:00.357Z,17.52
2019-03-21T10:55:00.474Z,17.41
2019-03-21T10:56:00.406Z,17.26
2019-03-21T10:57:00.428Z,17.41
2019-03-21T10:58:00.444Z,17.71
2019-03-21T10:59:00.464Z,17.76
2019-03-21T11:00:01.989Z,17.78
2019-03-21T11:01:00.531Z,18.01
2019-03-21T11:02:07.283Z,18.04
2019-03-21T11:03:00.556Z,17.71
2019-03-21T11:04:00.578Z,17.78
2019-03-21T11:05:00.603Z,17.52
2019-03-21T11:06:00.622Z,17.90
2019-03-21T11:07:00.643Z,17.95
2019-03-21T11:08:00.665Z,17.71
2019-03-21T11:09:00.680Z,17.71
2019-03-21T11:10:00.705Z,17.94
2019-03-21T11:11:00.737Z,17.95
2019-03-21T11:12:00.776Z,18.07
2019-03-21T11:13:00.771Z,18.00
2019-03-21T11:14:00.793Z,18.11
2019-03-21T11:15:00.821Z,18.01
2019-03-21T11:16:00.838Z,18.18
2019-03-21T11:17:00.861Z,18.04
2019-03-21T11:18:00.867Z,18.20
2019-03-21T11:19:00.908Z,18.50
2019-03-21T11:20:01.006Z,18.56
2019-03-21T11:21:00.971Z,18.55
2019-03-21T11:22:06.283Z,18.59
2019-03-21T11:23:00.993Z,18.59
2019-03-21T11:24:01.017Z,18.58
2019-03-21T11:25:01.027Z,18.75
2019-03-21T11:26:01.071Z,18.66
2019-03-21T11:27:01.079Z,18.55
2019-03-21T11:28:01.098Z,18.07
2019-03-21T11:29:01.119Z,18.04
2019-03-21T11:30:01.147Z,18.47
2019-03-21T11:31:01.167Z,18.86
2019-03-21T11:32:01.189Z,19.11
2019-03-21T11:33:01.207Z,19.67
2019-03-21T11:34:01.227Z,19.36
2019-03-21T11:35:01.255Z,19.24
2019-03-21T11:36:01.279Z,19.11
2019-03-21T11:37:01.297Z,19.07
2019-03-21T11:38:01.336Z,19.09
2019-03-21T11:39:01.343Z,19.31
2019-03-21T11:40:01.370Z,19.54
2019-03-21T11:41:01.397Z,19.81
2019-03-21T11:42:01.469Z,20.09
2019-03-21T11:43:01.573Z,19.70
2019-03-21T11:44:01.459Z,19.59
2019-03-21T11:45:01.614Z,19.73
2019-03-21T11:46:01.510Z,19.73
2019-03-21T11:47:01.593Z,20.02
2019-03-21T11:48:01.558Z,19.49
2019-03-21T11:49:01.567Z,19.70
2019-03-21T11:50:01.589Z,19.94
2019-03-21T11:51:01.622Z,20.19
2019-03-21T11:52:01.647Z,20.22
2019-03-21T11:53:01.653Z,20.18
2019-03-21T11:54:01.674Z,20.04
2019-03-21T11:55:01.724Z,19.91
2019-03-21T11:56:01.738Z,20.18
2019-03-21T11:57:01.749Z,20.06
2019-03-21T11:58:01.787Z,20.16
2019-03-21T11:59:01.787Z,20.34
2019-03-21T12:00:01.812Z,20.72
2019-03-21T12:01:01.927Z,20.84
2019-03-21T12:02:01.855Z,20.78
2019-03-21T12:03:04.130Z,20.77
2019-03-21T12:04:01.898Z,21.05
2019-03-21T12:05:01.921Z,20.87
2019-03-21T12:06:01.943Z,20.69
2019-03-21T12:07:01.968Z,20.92
2019-03-21T12:08:01.991Z,21.11
2019-03-21T12:09:02.016Z,20.90
2019-03-21T12:10:02.037Z,21.22
2019-03-21T12:11:02.057Z,21.43
2019-03-21T12:12:02.081Z,21.62
2019-03-21T12:13:02.105Z,21.24
2019-03-21T12:14:02.128Z,21.05
2019-03-21T12:15:02.156Z,20.44
2019-03-21T12:16:02.185Z,20.85
2019-03-21T12:17:02.197Z,21.30
2019-03-21T12:18:02.227Z,21.51
2019-03-21T12:19:02.245Z,21.48
2019-03-21T12:20:02.273Z,21.21
2019-03-21T12:21:02.296Z,21.33
2019-03-21T12:22:02.325Z,21.58
2019-03-21T12:23:02.345Z,21.52
2019-03-21T12:24:02.365Z,21.21
2019-03-21T12:25:02.398Z,21.40
2019-03-21T12:26:02.431Z,21.24
2019-03-21T12:27:02.444Z,21.35
2019-03-21T12:28:02.465Z,21.30
2019-03-21T12:29:02.511Z,21.24
2019-03-21T12:30:02.512Z,21.43
2019-03-21T12:31:02.542Z,21.52
2019-03-21T12:32:02.568Z,21.85
2019-03-21T12:33:02.584Z,22.04
2019-03-21T12:34:02.613Z,21.40
2019-03-21T12:35:02.648Z,21.05
2019-03-21T12:36:02.665Z,20.99
2019-03-21T12:37:02.688Z,21.40
2019-03-21T12:38:02.705Z,21.80
2019-03-21T12:39:02.736Z,21.72
2019-03-21T12:40:02.768Z,21.69
2019-03-21T12:41:02.785Z,21.45
2019-03-21T12:42:02.821Z,21.61
2019-03-21T12:43:02.833Z,21.60
2019-03-21T12:44:02.851Z,21.85
2019-03-21T12:45:02.883Z,22.26
2019-03-21T12:46:02.899Z,22.23
2019-03-21T12:47:02.951Z,21.91
2019-03-21T12:48:02.977Z,21.43
2019-03-21T12:49:02.989Z,21.20
2019-03-21T12:50:03.008Z,21.66
2019-03-21T12:51:03.049Z,22.47
2019-03-21T12:52:03.055Z,23.02
2019-03-21T12:53:03.088Z,23.55
2019-03-21T12:54:03.103Z,23.55
2019-03-21T12:55:03.135Z,23.54
2019-03-21T12:56:03.157Z,23.73
2019-03-21T12:57:03.177Z,23.71
2019-03-21T12:58:03.204Z,22.85
2019-03-21T12:59:03.252Z,23.06
2019-03-21T13:00:03.260Z,22.94
2019-03-21T13:01:03.285Z,22.44
2019-03-21T13:02:03.317Z,22.76
2019-03-21T13:03:03.332Z,22.62
2019-03-21T13:04:03.363Z,22.55
2019-03-21T13:05:03.377Z,22.70
2019-03-21T13:06:03.405Z,22.60
2019-03-21T13:07:03.941Z,22.62
2019-03-21T13:08:03.454Z,22.70
2019-03-21T13:09:03.487Z,22.62
2019-03-21T13:10:03.504Z,23.15